DLH9WE EDDM-LDDU
Flight info
| Callsign | DLH9WE |
|---|---|
| Flight time | N/A |
| Altitude | 33000 |
| Route | VAVOR3E VAVOR M867 RADIZ DCT GIMIX/N0446F370 DCT ALIVO DCT SIPAL |
| Aircraft | A321/M-SDE2E3FGIJ1LORWXYZ/HB1 |
Departure
| Time | 2026-05-06 15:01 |
|---|---|
| Airport | Munich Airport (EDDM) |
Arrival
| Time | N/A |
|---|---|
| Airport | Dubrovnik Ruđer Bošković Airport (LDDU) |
| Time | Latitude | Longitude | Altitude | Speed | Heading |
|---|---|---|---|---|---|
| 2026-05-06 14:39 | 48.35203 | 11.79359 | 1486 ft | 0 kts | 263° |
| 2026-05-06 14:50 | 48.35203 | 11.79360 | 1476 ft | 1 kts | 263° |
| 2026-05-06 14:50 | 48.35205 | 11.79395 | 1485 ft | 4 kts | 263° |
| 2026-05-06 14:50 | 48.35208 | 11.79430 | 1485 ft | 2 kts | 263° |
| 2026-05-06 14:51 | 48.35214 | 11.79466 | 1485 ft | 4 kts | 236° |
| 2026-05-06 14:51 | 48.35232 | 11.79489 | 1485 ft | 4 kts | 188° |
| 2026-05-06 14:51 | 48.35257 | 11.79488 | 1485 ft | 4 kts | 173° |
| 2026-05-06 14:51 | 48.35265 | 11.79487 | 1482 ft | 0 kts | 173° |
| 2026-05-06 14:54 | 48.35238 | 11.79491 | 1479 ft | 8 kts | 173° |
| 2026-05-06 14:54 | 48.35162 | 11.79505 | 1479 ft | 13 kts | 173° |
| 2026-05-06 14:54 | 48.35065 | 11.79522 | 1485 ft | 15 kts | 173° |
| 2026-05-06 14:54 | 48.34950 | 11.79543 | 1481 ft | 18 kts | 173° |
| 2026-05-06 14:55 | 48.34822 | 11.79556 | 1481 ft | 17 kts | 201° |
| 2026-05-06 14:55 | 48.34780 | 11.79408 | 1481 ft | 17 kts | 264° |
| 2026-05-06 14:55 | 48.34767 | 11.79225 | 1479 ft | 18 kts | 264° |
| 2026-05-06 14:55 | 48.34751 | 11.79026 | 1485 ft | 20 kts | 263° |
| 2026-05-06 14:56 | 48.34733 | 11.78812 | 1485 ft | 21 kts | 263° |
| 2026-05-06 14:56 | 48.34714 | 11.78585 | 1485 ft | 23 kts | 263° |
| 2026-05-06 14:56 | 48.34696 | 11.78344 | 1485 ft | 24 kts | 263° |
| 2026-05-06 14:56 | 48.34677 | 11.78091 | 1485 ft | 25 kts | 264° |
| 2026-05-06 14:57 | 48.34658 | 11.77827 | 1480 ft | 26 kts | 264° |
| 2026-05-06 14:57 | 48.34638 | 11.77553 | 1472 ft | 27 kts | 263° |
| 2026-05-06 14:57 | 48.34616 | 11.77271 | 1481 ft | 28 kts | 263° |
| 2026-05-06 14:57 | 48.34594 | 11.76982 | 1478 ft | 28 kts | 263° |
| 2026-05-06 14:58 | 48.34571 | 11.76685 | 1479 ft | 29 kts | 263° |
| 2026-05-06 14:58 | 48.34548 | 11.76383 | 1473 ft | 29 kts | 263° |
| 2026-05-06 14:58 | 48.34524 | 11.76075 | 1485 ft | 30 kts | 263° |
| 2026-05-06 14:58 | 48.34503 | 11.75792 | 1480 ft | 27 kts | 263° |
| 2026-05-06 14:59 | 48.34481 | 11.75508 | 1485 ft | 28 kts | 263° |
| 2026-05-06 14:59 | 48.34462 | 11.75268 | 1485 ft | 11 kts | 259° |
| 2026-05-06 14:59 | 48.34396 | 11.75219 | 1485 ft | 12 kts | 177° |
| 2026-05-06 14:59 | 48.34307 | 11.75237 | 1473 ft | 14 kts | 172° |
| 2026-05-06 15:00 | 48.34205 | 11.75256 | 1485 ft | 16 kts | 174° |
| 2026-05-06 15:00 | 48.34104 | 11.75272 | 1485 ft | 8 kts | 173° |
| 2026-05-06 15:00 | 48.34086 | 11.75338 | 1477 ft | 9 kts | 83° |
| 2026-05-06 15:00 | 48.34109 | 11.75609 | 1477 ft | 61 kts | 83° |
| 2026-05-06 15:01 | 48.34186 | 11.76624 | 1486 ft | 132 kts | 83° |
| 2026-05-06 15:01 | 48.34315 | 11.78207 | 1812 ft | 158 kts | 82° |
| 2026-05-06 15:01 | 48.34459 | 11.79846 | 2525 ft | 163 kts | 81° |
| 2026-05-06 15:01 | 48.34632 | 11.81623 | 2996 ft | 181 kts | 81° |
| 2026-05-06 15:02 | 48.34806 | 11.83561 | 3399 ft | 198 kts | 83° |
| 2026-05-06 15:02 | 48.34972 | 11.85701 | 3827 ft | 213 kts | 83° |
| 2026-05-06 15:02 | 48.35133 | 11.88027 | 4089 ft | 236 kts | 84° |
| 2026-05-06 15:02 | 48.35297 | 11.90579 | 4592 ft | 250 kts | 84° |
| 2026-05-06 15:03 | 48.35451 | 11.93195 | 5402 ft | 253 kts | 90° |
| 2026-05-06 15:03 | 48.35007 | 11.95774 | 6189 ft | 257 kts | 122° |
| 2026-05-06 15:03 | 48.33786 | 11.97675 | 6967 ft | 259 kts | 142° |
| 2026-05-06 15:03 | 48.32277 | 11.99246 | 7532 ft | 274 kts | 156° |
| 2026-05-06 15:04 | 48.30423 | 12.00138 | 8110 ft | 284 kts | 164° |
| 2026-05-06 15:04 | 48.28504 | 12.00939 | 8863 ft | 288 kts | 164° |
| 2026-05-06 15:04 | 48.26563 | 12.01740 | 9618 ft | 291 kts | 165° |
| 2026-05-06 15:04 | 48.24606 | 12.02545 | 10388 ft | 293 kts | 165° |
| 2026-05-06 15:05 | 48.22637 | 12.03357 | 11177 ft | 294 kts | 165° |
| 2026-05-06 15:05 | 48.20662 | 12.04174 | 11957 ft | 295 kts | 165° |
| 2026-05-06 15:05 | 48.18674 | 12.04999 | 12717 ft | 297 kts | 166° |
| 2026-05-06 15:05 | 48.16677 | 12.05829 | 13450 ft | 299 kts | 166° |
| 2026-05-06 15:06 | 48.14663 | 12.06665 | 14154 ft | 302 kts | 166° |
| 2026-05-06 15:06 | 48.12630 | 12.07510 | 14835 ft | 304 kts | 166° |
| 2026-05-06 15:06 | 48.10580 | 12.08360 | 15504 ft | 307 kts | 167° |
| 2026-05-06 15:06 | 48.08512 | 12.09215 | 16159 ft | 310 kts | 167° |
| 2026-05-06 15:07 | 48.06427 | 12.10079 | 16803 ft | 312 kts | 167° |
| 2026-05-06 15:07 | 48.04329 | 12.10948 | 17435 ft | 314 kts | 167° |
| 2026-05-06 15:07 | 48.02211 | 12.11822 | 18022 ft | 317 kts | 167° |
| 2026-05-06 15:07 | 48.00078 | 12.12701 | 18606 ft | 319 kts | 167° |
| 2026-05-06 15:08 | 47.97926 | 12.13589 | 19162 ft | 322 kts | 167° |
| 2026-05-06 15:08 | 47.95753 | 12.14484 | 19697 ft | 325 kts | 167° |
| 2026-05-06 15:08 | 47.93618 | 12.15687 | 20205 ft | 332 kts | 155° |
| 2026-05-06 15:08 | 47.91644 | 12.17608 | 20442 ft | 349 kts | 143° |
| 2026-05-06 15:09 | 47.89746 | 12.20003 | 20585 ft | 365 kts | 143° |
| 2026-05-06 15:09 | 47.87774 | 12.22501 | 20702 ft | 380 kts | 143° |
| 2026-05-06 15:09 | 47.85725 | 12.25088 | 20834 ft | 392 kts | 143° |
| 2026-05-06 15:09 | 47.83610 | 12.27753 | 20995 ft | 403 kts | 143° |
| 2026-05-06 15:10 | 47.81451 | 12.30469 | 21336 ft | 409 kts | 143° |
| 2026-05-06 15:10 | 47.79269 | 12.33208 | 21751 ft | 412 kts | 143° |
| 2026-05-06 15:10 | 47.77070 | 12.35963 | 22175 ft | 415 kts | 143° |
| 2026-05-06 15:10 | 47.74850 | 12.38734 | 22596 ft | 418 kts | 143° |
| 2026-05-06 15:11 | 47.72615 | 12.41519 | 23007 ft | 421 kts | 143° |
| 2026-05-06 15:11 | 47.70366 | 12.44319 | 23432 ft | 423 kts | 143° |
| 2026-05-06 15:11 | 47.68100 | 12.47130 | 23839 ft | 426 kts | 143° |
| 2026-05-06 15:11 | 47.65817 | 12.49950 | 24232 ft | 429 kts | 143° |
| 2026-05-06 15:12 | 47.63510 | 12.52784 | 24609 ft | 431 kts | 143° |
| 2026-05-06 15:12 | 47.61171 | 12.55584 | 24988 ft | 433 kts | 145° |
| 2026-05-06 15:12 | 47.58766 | 12.58295 | 25385 ft | 435 kts | 146° |
| 2026-05-06 15:12 | 47.56317 | 12.60943 | 25776 ft | 437 kts | 147° |
| 2026-05-06 15:13 | 47.53842 | 12.63562 | 26123 ft | 439 kts | 147° |
| 2026-05-06 15:13 | 47.51351 | 12.66190 | 26485 ft | 441 kts | 147° |
| 2026-05-06 15:13 | 47.48854 | 12.68847 | 26823 ft | 443 kts | 147° |
| 2026-05-06 15:13 | 47.46353 | 12.71540 | 27158 ft | 446 kts | 147° |
| 2026-05-06 15:14 | 47.43851 | 12.74261 | 27505 ft | 448 kts | 147° |
| 2026-05-06 15:14 | 47.41336 | 12.77004 | 27833 ft | 450 kts | 146° |
| 2026-05-06 15:14 | 47.38812 | 12.79754 | 28128 ft | 452 kts | 147° |
| 2026-05-06 15:14 | 47.36276 | 12.82507 | 28434 ft | 454 kts | 147° |
| 2026-05-06 15:15 | 47.33726 | 12.85264 | 28730 ft | 456 kts | 147° |
| 2026-05-06 15:15 | 47.31163 | 12.88028 | 28993 ft | 457 kts | 147° |
| 2026-05-06 15:15 | 47.28589 | 12.90795 | 29251 ft | 459 kts | 147° |
| 2026-05-06 15:15 | 47.26002 | 12.93567 | 29487 ft | 460 kts | 147° |
| 2026-05-06 15:16 | 47.23413 | 12.96335 | 29809 ft | 460 kts | 147° |
| 2026-05-06 15:16 | 47.20830 | 12.99101 | 30147 ft | 459 kts | 147° |
| 2026-05-06 15:16 | 47.18255 | 13.01861 | 30491 ft | 458 kts | 147° |
| 2026-05-06 15:16 | 47.15683 | 13.04616 | 30842 ft | 457 kts | 147° |
| 2026-05-06 15:17 | 47.13118 | 13.07362 | 31164 ft | 456 kts | 147° |
| 2026-05-06 15:17 | 47.10560 | 13.10103 | 31491 ft | 455 kts | 147° |
| 2026-05-06 15:17 | 47.08004 | 13.12833 | 31811 ft | 453 kts | 147° |
| 2026-05-06 15:17 | 47.05459 | 13.15547 | 32126 ft | 452 kts | 147° |
| 2026-05-06 15:18 | 47.02945 | 13.18221 | 32409 ft | 452 kts | 148° |
| 2026-05-06 15:18 | 47.00366 | 13.20959 | 32699 ft | 451 kts | 148° |
| 2026-05-06 15:18 | 46.97824 | 13.23655 | 32821 ft | 449 kts | 148° |
| 2026-05-06 15:19 | 46.92846 | 13.28928 | 32838 ft | 442 kts | 148° |
| 2026-05-06 15:19 | 46.87862 | 13.34197 | 32850 ft | 441 kts | 148° |
| 2026-05-06 15:20 | 46.82879 | 13.39436 | 32856 ft | 441 kts | 148° |
| 2026-05-06 15:20 | 46.77893 | 13.44670 | 32859 ft | 441 kts | 148° |
| 2026-05-06 15:21 | 46.72904 | 13.49904 | 32874 ft | 442 kts | 148° |
| 2026-05-06 15:21 | 46.67909 | 13.55141 | 32877 ft | 442 kts | 148° |
| 2026-05-06 15:22 | 46.62916 | 13.60362 | 32884 ft | 441 kts | 148° |
| 2026-05-06 15:22 | 46.57923 | 13.65557 | 32902 ft | 441 kts | 148° |
| 2026-05-06 15:23 | 46.52930 | 13.70752 | 32905 ft | 442 kts | 148° |
| 2026-05-06 15:23 | 46.47937 | 13.75959 | 32908 ft | 442 kts | 147° |
| 2026-05-06 15:24 | 46.42953 | 13.81187 | 32917 ft | 442 kts | 147° |
| 2026-05-06 15:24 | 46.37968 | 13.86400 | 32920 ft | 442 kts | 147° |
| 2026-05-06 15:25 | 46.32976 | 13.91587 | 32915 ft | 442 kts | 147° |
| 2026-05-06 15:25 | 46.27984 | 13.96767 | 32918 ft | 442 kts | 147° |
| 2026-05-06 15:26 | 46.22986 | 14.01940 | 32923 ft | 442 kts | 147° |
| 2026-05-06 15:26 | 46.17992 | 14.07105 | 32931 ft | 442 kts | 147° |
| 2026-05-06 15:27 | 46.12995 | 14.12261 | 32940 ft | 442 kts | 147° |
| 2026-05-06 15:27 | 46.07995 | 14.17401 | 32941 ft | 442 kts | 147° |
| 2026-05-06 15:28 | 46.02996 | 14.22537 | 32945 ft | 441 kts | 147° |
| 2026-05-06 15:28 | 45.98843 | 14.26802 | 32942 ft | 441 kts | 147° |
| 2026-05-06 15:29 | 45.93841 | 14.31923 | 32944 ft | 441 kts | 148° |
| 2026-05-06 15:29 | 45.88831 | 14.37026 | 32945 ft | 441 kts | 148° |
| 2026-05-06 15:30 | 45.83007 | 14.42950 | 32943 ft | 442 kts | 148° |